Time;durP1;ratioP1;P1;durP2;ratioP2;P2;SDS_P1;SDS_P2;PMS_P1;PMS_P2;Temp;Humidity;BMP_temperature;BMP_pressure;BME280_temperature;BME280_humidity;BME280_pressure;Samples;Min_cycle;Max_cycle;Signal;HPM_P1;HPM_P2
2024/01/26 06:01:10;;;;;;;3.15;0.80;;;9.90;85.90;;;;;;4554609;23;20122;-80
2024/01/26 06:03:12;;;;;;;2.10;0.80;;;9.80;85.90;;;;;;4118396;28;20499;-77
2024/01/26 06:05:14;;;;;;;2.05;0.80;;;9.80;85.90;;;;;;4118616;28;20047;-78
2024/01/26 06:07:16;;;;;;;2.33;0.90;;;9.80;86.00;;;;;;4118290;28;20097;-78
2024/01/26 06:09:17;;;;;;;1.52;0.70;;;9.80;86.00;;;;;;4118026;28;20098;-79
2024/01/26 06:11:20;;;;;;;3.20;1.00;;;9.80;86.00;;;;;;4118446;28;20440;-75
2024/01/26 06:13:23;;;;;;;2.90;1.00;;;9.80;86.00;;;;;;4118192;28;20050;-76
2024/01/26 06:15:25;;;;;;;2.25;0.88;;;9.80;85.90;;;;;;4118256;28;20090;-76
2024/01/26 06:17:28;;;;;;;3.35;0.90;;;9.80;85.90;;;;;;4118182;28;20070;-77
2024/01/26 06:19:30;;;;;;;1.63;0.70;;;9.80;85.90;;;;;;4118233;28;20109;-77
2024/01/26 06:21:32;;;;;;;3.63;0.82;;;9.80;86.00;;;;;;4118027;28;20519;-78
2024/01/26 06:23:34;;;;;;;2.30;0.90;;;9.80;85.70;;;;;;4118172;28;20047;-78
2024/01/26 06:25:35;;;;;;;2.08;0.70;;;9.80;85.70;;;;;;4118183;28;20431;-79
2024/01/26 06:27:37;;;;;;;2.15;0.82;;;9.80;85.70;;;;;;4118056;28;20047;-78
2024/01/26 06:29:38;;;;;;;2.20;0.77;;;9.80;85.90;;;;;;4118108;28;20070;-79
2024/01/26 06:31:39;;;;;;;2.17;0.80;;;9.80;85.90;;;;;;4117866;28;20050;-78
2024/01/26 06:33:43;;;;;;;2.53;1.00;;;9.80;85.70;;;;;;4117848;28;20109;-78
2024/01/26 06:35:45;;;;;;;2.90;0.90;;;9.80;85.60;;;;;;4118251;28;20105;-77
2024/01/26 06:37:47;;;;;;;2.65;1.00;;;9.80;85.60;;;;;;4118178;28;20046;-79
2024/01/26 06:39:49;;;;;;;2.08;0.73;;;9.80;85.50;;;;;;4117882;28;20134;-78
2024/01/26 06:41:50;;;;;;;2.85;0.85;;;9.80;85.60;;;;;;4117627;28;20043;-79
2024/01/26 06:43:51;;;;;;;2.38;0.77;;;9.80;85.70;;;;;;4117879;28;20055;-80
2024/01/26 06:45:53;;;;;;;1.70;0.70;;;9.80;86.40;;;;;;4117851;28;20093;-78
2024/01/26 06:47:55;;;;;;;2.75;1.02;;;9.80;85.50;;;;;;4117979;28;20102;-79
2024/01/26 06:49:58;;;;;;;2.25;0.80;;;9.80;85.60;;;;;;4118089;28;20062;-77
2024/01/26 06:52:00;;;;;;;3.97;1.10;;;9.80;85.50;;;;;;4119086;28;20448;-79
2024/01/26 06:54:01;;;;;;;2.70;0.80;;;9.80;85.30;;;;;;4118776;28;20050;-78
2024/01/26 06:56:03;;;;;;;4.15;1.05;;;9.80;85.30;;;;;;4119332;28;20054;-77
2024/01/26 06:58:05;;;;;;;1.65;0.60;;;9.80;85.40;;;;;;4118613;28;20054;-78
2024/01/26 07:00:09;;;;;;;2.78;1.00;;;9.80;85.30;;;;;;4118647;28;20058;-79
2024/01/26 07:02:11;;;;;;;4.82;0.90;;;9.80;85.30;;;;;;4118574;28;20295;-80
2024/01/26 07:04:13;;;;;;;2.55;0.90;;;9.90;85.20;;;;;;4119626;28;20043;-77
2024/01/26 07:06:16;;;;;;;2.78;0.70;;;9.90;85.30;;;;;;4120343;28;20062;-78
2024/01/26 07:08:18;;;;;;;2.40;0.80;;;9.90;85.20;;;;;;4117833;28;20051;-76
2024/01/26 07:10:20;;;;;;;3.53;0.90;;;9.80;85.10;;;;;;4117961;28;20050;-77
2024/01/26 07:12:21;;;;;;;2.10;0.80;;;9.90;85.10;;;;;;4118026;28;20051;-78
2024/01/26 07:14:23;;;;;;;3.90;0.90;;;9.90;85.20;;;;;;4117749;28;20051;-78
2024/01/26 07:16:24;;;;;;;6.50;1.40;;;9.90;85.10;;;;;;4117873;28;20508;-76
2024/01/26 07:18:26;;;;;;;2.30;0.95;;;9.90;85.10;;;;;;4119245;28;20059;-79
2024/01/26 07:20:28;;;;;;;3.75;1.10;;;9.90;84.90;;;;;;4117197;28;20440;-79
2024/01/26 07:22:31;;;;;;;2.22;0.93;;;10.00;85.00;;;;;;4117515;28;20102;-79
2024/01/26 07:24:33;;;;;;;2.75;1.05;;;10.00;84.80;;;;;;4117395;28;20046;-78
2024/01/26 07:26:34;;;;;;;3.03;0.98;;;10.00;84.80;;;;;;4117299;28;20086;-77
2024/01/26 07:28:36;;;;;;;1.88;0.70;;;10.00;84.70;;;;;;4117697;28;20455;-79
2024/01/26 07:30:38;;;;;;;3.70;1.05;;;10.00;84.60;;;;;;4117373;28;20121;-78
2024/01/26 07:32:40;;;;;;;1.67;0.70;;;10.10;84.70;;;;;;4117425;28;20047;-79
2024/01/26 07:34:42;;;;;;;3.13;1.00;;;10.00;84.50;;;;;;4116968;28;20117;-79
2024/01/26 07:36:43;;;;;;;2.90;0.80;;;10.10;84.70;;;;;;4117180;28;20051;-77
2024/01/26 07:38:47;;;;;;;3.58;1.00;;;10.10;84.60;;;;;;4117013;28;20101;-79
2024/01/26 07:40:47;;;;;;;2.60;0.82;;;10.10;84.30;;;;;;4116979;28;20053;-76
2024/01/26 07:42:49;;;;;;;2.25;0.82;;;10.10;84.40;;;;;;4117098;28;20130;-79
2024/01/26 07:44:51;;;;;;;3.22;0.85;;;10.10;84.10;;;;;;4117162;28;20105;-78
2024/01/26 07:46:53;;;;;;;1.88;0.70;;;10.20;84.00;;;;;;4117085;28;20051;-78
2024/01/26 07:48:55;;;;;;;2.70;0.95;;;10.20;83.90;;;;;;4116624;28;20063;-77
2024/01/26 07:50:57;;;;;;;3.45;1.10;;;10.20;83.80;;;;;;4117337;28;20089;-79
2024/01/26 07:52:59;;;;;;;2.92;0.95;;;10.20;83.60;;;;;;4116954;28;20101;-79
2024/01/26 07:55:02;;;;;;;4.20;0.90;;;10.20;83.60;;;;;;4116958;28;20408;-79
2024/01/26 07:57:04;;;;;;;2.72;1.00;;;10.20;83.50;;;;;;4116753;28;20047;-78
2024/01/26 07:59:06;;;;;;;1.95;0.82;;;10.30;83.60;;;;;;4116906;28;20051;-78
2024/01/26 08:01:09;;;;;;;1.88;0.80;;;10.30;83.50;;;;;;4116788;28;20059;-78
2024/01/26 08:03:11;;;;;;;2.78;0.98;;;10.30;83.40;;;;;;4116660;28;20125;-78
2024/01/26 08:05:12;;;;;;;2.40;0.80;;;10.30;83.50;;;;;;4116868;28;20443;-78
2024/01/26 08:07:15;;;;;;;2.45;1.10;;;10.30;83.20;;;;;;4116761;28;20043;-78
2024/01/26 08:09:17;;;;;;;2.92;1.10;;;10.40;83.10;;;;;;4116801;28;20058;-78
2024/01/26 08:11:20;;;;;;;3.08;0.80;;;10.50;82.90;;;;;;4116582;28;20046;-78
2024/01/26 08:13:22;;;;;;;2.13;0.80;;;10.40;82.80;;;;;;4116751;28;20097;-78
2024/01/26 08:15:24;;;;;;;2.70;0.98;;;10.40;82.70;;;;;;4116749;28;20455;-79
2024/01/26 08:17:25;;;;;;;3.60;0.90;;;10.50;82.70;;;;;;4116688;28;20492;-80
2024/01/26 08:19:27;;;;;;;3.25;0.90;;;10.60;82.40;;;;;;4116608;28;20170;-81
2024/01/26 08:21:28;;;;;;;4.30;1.10;;;10.60;82.20;;;;;;4116628;28;20098;-78
2024/01/26 08:23:30;;;;;;;3.22;1.00;;;10.60;82.20;;;;;;4116825;28;20472;-77
2024/01/26 08:25:32;;;;;;;3.60;0.98;;;10.60;82.00;;;;;;4116745;28;20054;-79
2024/01/26 08:27:35;;;;;;;3.10;1.02;;;10.70;82.10;;;;;;4116141;28;20642;-79
2024/01/26 08:29:38;;;;;;;2.40;0.80;;;10.70;82.00;;;;;;4116519;28;20559;-78
2024/01/26 08:31:40;;;;;;;4.70;1.08;;;10.70;82.00;;;;;;4116225;28;20047;-79
2024/01/26 08:33:42;;;;;;;2.60;1.00;;;10.70;81.90;;;;;;4115872;28;20385;-77
2024/01/26 08:35:44;;;;;;;3.88;0.88;;;10.80;81.80;;;;;;4116465;28;20059;-78
2024/01/26 08:37:46;;;;;;;2.15;0.90;;;10.80;81.60;;;;;;4116512;28;20543;-79
2024/01/26 08:39:48;;;;;;;4.00;1.10;;;10.80;81.50;;;;;;4116430;28;20078;-79
2024/01/26 08:41:50;;;;;;;3.08;1.00;;;10.90;81.40;;;;;;4116099;28;20097;-81
2024/01/26 08:43:53;;;;;;;3.03;0.80;;;10.90;81.30;;;;;;4116543;28;20054;-79
2024/01/26 08:45:55;;;;;;;2.22;0.90;;;10.90;81.10;;;;;;4116632;28;20050;-77
2024/01/26 08:47:57;;;;;;;2.03;0.80;;;10.90;81.00;;;;;;4116380;28;20129;-77
2024/01/26 08:49:58;;;;;;;3.75;1.10;;;11.00;80.90;;;;;;4116243;28;20098;-76
2024/01/26 08:52:01;;;;;;;3.47;1.10;;;11.00;81.00;;;;;;4116479;28;20051;-78
2024/01/26 08:54:03;;;;;;;2.42;0.90;;;11.00;80.90;;;;;;4116645;28;20081;-77
2024/01/26 08:56:06;;;;;;;2.20;0.80;;;11.00;80.70;;;;;;4116408;28;20050;-80
2024/01/26 08:58:08;;;;;;;2.63;0.90;;;11.10;80.90;;;;;;4116319;28;20121;-78
2024/01/26 09:00:13;;;;;;;2.70;0.82;;;11.10;80.80;;;;;;4116130;28;20051;-78
2024/01/26 09:02:14;;;;;;;2.37;0.90;;;11.10;80.70;;;;;;4116149;28;20058;-77
2024/01/26 09:04:16;;;;;;;3.97;0.90;;;11.10;80.50;;;;;;4116040;28;20869;-80
2024/01/26 09:06:18;;;;;;;2.97;1.35;;;11.10;80.70;;;;;;4116173;28;20171;-78
2024/01/26 09:08:20;;;;;;;4.47;1.20;;;11.20;80.60;;;;;;4116187;28;20184;-80
2024/01/26 09:10:24;;;;;;;3.80;1.10;;;11.20;80.50;;;;;;4116199;28;20063;-78
2024/01/26 09:12:25;;;;;;;3.53;1.20;;;11.20;80.40;;;;;;4116117;28;20047;-78
2024/01/26 09:14:29;;;;;;;2.38;1.00;;;11.20;80.50;;;;;;4116174;28;20085;-80
2024/01/26 09:16:32;;;;;;;3.92;1.33;;;11.20;80.30;;;;;;4116034;28;20066;-78
2024/01/26 09:18:34;;;;;;;3.15;0.82;;;11.20;80.30;;;;;;4116093;28;20098;-77
2024/01/26 09:20:35;;;;;;;3.28;0.82;;;11.20;80.20;;;;;;4116044;28;20120;-80
2024/01/26 09:22:36;;;;;;;2.38;0.98;;;11.20;80.20;;;;;;4116084;28;20058;-78
2024/01/26 09:24:38;;;;;;;2.50;0.90;;;11.30;80.50;;;;;;4116076;28;20047;-79
2024/01/26 09:26:41;;;;;;;3.13;0.80;;;11.30;80.50;;;;;;4115857;28;20059;-79
2024/01/26 09:28:43;;;;;;;2.50;0.95;;;11.30;80.40;;;;;;4116045;28;20079;-81
2024/01/26 09:30:45;;;;;;;3.20;1.10;;;11.30;80.10;;;;;;4116006;28;20055;-79
2024/01/26 09:32:48;;;;;;;3.40;1.17;;;11.30;80.10;;;;;;4115886;28;20074;-78
2024/01/26 09:34:50;;;;;;;4.78;1.10;;;11.30;80.00;;;;;;4116011;28;20097;-77
2024/01/26 09:36:51;;;;;;;1.70;0.70;;;11.40;79.80;;;;;;4115855;28;20042;-78
2024/01/26 09:38:53;;;;;;;2.88;1.00;;;11.40;79.80;;;;;;4115954;28;20050;-79
2024/01/26 09:40:54;;;;;;;3.45;1.17;;;11.40;79.50;;;;;;4115882;28;20109;-79
2024/01/26 09:42:57;;;;;;;3.15;1.00;;;11.40;79.40;;;;;;4116078;28;20051;-78
2024/01/26 09:45:01;;;;;;;3.47;1.10;;;11.40;79.40;;;;;;4118122;28;20053;-78
2024/01/26 09:47:07;;;;;;;2.70;1.10;;;11.50;79.50;;;;;;4118904;28;20404;-78
2024/01/26 09:49:11;;;;;;;4.30;1.30;;;11.50;79.20;;;;;;4118922;28;20043;-78
2024/01/26 09:51:12;;;;;;;3.28;1.10;;;11.50;79.10;;;;;;4118852;28;20050;-78
2024/01/26 09:53:17;;;;;;;3.30;1.10;;;11.50;79.00;;;;;;4118631;28;20106;-78
2024/01/26 09:55:20;;;;;;;3.28;1.10;;;11.50;79.00;;;;;;4115481;28;20043;-78
2024/01/26 09:57:23;;;;;;;5.40;1.33;;;11.50;78.90;;;;;;4119041;28;20051;-78
2024/01/26 09:59:25;;;;;;;3.13;1.20;;;11.60;79.00;;;;;;4118728;28;20086;-78
2024/01/26 10:01:28;;;;;;;4.13;1.13;;;11.60;78.90;;;;;;4118792;28;20050;-78
2024/01/26 10:03:30;;;;;;;2.83;1.10;;;11.60;78.80;;;;;;4118941;28;20066;-78
2024/01/26 10:05:33;;;;;;;3.22;1.13;;;11.60;78.80;;;;;;4119055;28;20058;-78
2024/01/26 10:07:35;;;;;;;4.57;1.30;;;11.60;78.80;;;;;;4118763;28;20092;-77
2024/01/26 10:09:37;;;;;;;2.75;1.20;;;11.60;78.60;;;;;;4118750;28;20047;-79
2024/01/26 10:11:39;;;;;;;3.47;1.30;;;11.60;78.60;;;;;;4119040;28;20464;-78
2024/01/26 10:13:41;;;;;;;3.67;1.30;;;11.60;78.70;;;;;;4120419;28;20047;-76
2024/01/26 10:15:43;;;;;;;3.22;1.20;;;11.60;78.50;;;;;;4118507;28;20047;-78
2024/01/26 10:17:44;;;;;;;3.35;1.30;;;11.70;78.70;;;;;;4119091;28;20043;-75
2024/01/26 10:19:46;;;;;;;4.40;1.50;;;11.60;78.80;;;;;;4118591;28;20451;-78
2024/01/26 10:21:49;;;;;;;4.70;1.42;;;11.60;78.90;;;;;;4118096;28;20370;-79
2024/01/26 10:23:51;;;;;;;4.28;1.40;;;11.60;78.90;;;;;;4116859;28;20050;-79
2024/01/26 10:25:53;;;;;;;3.35;1.40;;;11.60;79.20;;;;;;4117200;28;20550;-79
2024/01/26 10:27:55;;;;;;;4.40;1.90;;;11.60;79.20;;;;;;4117370;28;20042;-79
2024/01/26 10:29:57;;;;;;;3.15;1.30;;;11.60;79.50;;;;;;4116257;28;20055;-79
2024/01/26 10:31:58;;;;;;;7.00;3.72;;;11.60;79.40;;;;;;4116985;28;20114;-77
2024/01/26 10:34:02;;;;;;;5.25;1.90;;;11.60;79.60;;;;;;4116479;28;20055;-78
2024/01/26 10:36:06;;;;;;;3.13;1.30;;;11.60;79.80;;;;;;4117012;28;20102;-79
2024/01/26 10:38:10;;;;;;;3.53;1.60;;;11.60;80.20;;;;;;4117061;28;20451;-81
2024/01/26 10:40:16;;;;;;;3.38;1.50;;;11.50;80.10;;;;;;4115752;28;20077;-79
2024/01/26 10:42:20;;;;;;;3.60;1.60;;;11.60;80.20;;;;;;4117090;28;20057;-79
2024/01/26 10:44:23;;;;;;;3.10;1.58;;;11.60;80.50;;;;;;4115935;28;20050;-76
2024/01/26 10:46:25;;;;;;;4.47;1.90;;;11.50;80.70;;;;;;4117477;28;20457;-77
2024/01/26 10:48:28;;;;;;;5.32;1.95;;;11.60;80.70;;;;;;4116260;28;20089;-78
2024/01/26 10:50:30;;;;;;;3.75;1.80;;;11.60;80.90;;;;;;4116629;28;20098;-78
2024/01/26 10:52:37;;;;;;;4.32;1.40;;;11.60;81.00;;;;;;4109213;28;20050;-79
2024/01/26 10:54:40;;;;;;;3.30;1.13;;;11.50;81.10;;;;;;4117314;28;20047;-78
2024/01/26 10:56:41;;;;;;;4.78;1.63;;;11.50;81.40;;;;;;4114842;28;20097;-77
2024/01/26 10:58:43;;;;;;;3.95;1.30;;;11.60;81.50;;;;;;4116495;28;20050;-79
2024/01/26 11:00:45;;;;;;;3.70;1.77;;;11.50;81.40;;;;;;4116980;28;20051;-80
2024/01/26 11:02:47;;;;;;;3.88;1.90;;;11.50;81.80;;;;;;4115657;28;20113;-77
2024/01/26 11:04:50;;;;;;;3.42;1.50;;;11.50;81.80;;;;;;4116080;28;20046;-79
2024/01/26 11:06:52;;;;;;;5.45;1.45;;;11.50;81.80;;;;;;4116400;28;20452;-80
2024/01/26 11:08:59;;;;;;;3.42;1.50;;;11.50;81.80;;;;;;4116536;28;20489;-79
2024/01/26 11:11:03;;;;;;;4.35;1.63;;;11.40;81.90;;;;;;4119153;28;20420;-77
2024/01/26 11:13:07;;;;;;;4.93;1.50;;;11.40;82.10;;;;;;4119301;28;20050;-78
2024/01/26 11:15:09;;;;;;;2.60;1.20;;;11.40;82.30;;;;;;4116947;28;20058;-77
2024/01/26 11:17:12;;;;;;;3.28;1.52;;;11.50;82.30;;;;;;4115504;28;20086;-77
2024/01/26 11:19:22;;;;;;;4.18;1.60;;;11.40;82.20;;;;;;4116047;28;20054;-77
2024/01/26 11:21:25;;;;;;;5.03;1.70;;;11.50;82.10;;;;;;4116449;28;20050;-77
2024/01/26 11:23:27;;;;;;;3.47;1.55;;;11.50;82.20;;;;;;4115743;28;20046;-76
2024/01/26 11:25:35;;;;;;;3.80;1.60;;;11.50;82.20;;;;;;4115800;28;20102;-79
2024/01/26 11:27:38;;;;;;;3.40;1.50;;;11.50;82.00;;;;;;4108900;28;20090;-78
2024/01/26 11:29:40;;;;;;;3.95;1.63;;;11.50;82.30;;;;;;4115311;28;20056;-79
2024/01/26 11:31:42;;;;;;;3.33;1.60;;;11.50;82.20;;;;;;4115465;28;20141;-79
2024/01/26 11:33:44;;;;;;;4.10;1.85;;;11.60;82.20;;;;;;4116079;28;20042;-77
2024/01/26 11:35:46;;;;;;;3.33;1.50;;;11.60;82.10;;;;;;4115392;28;20043;-76
2024/01/26 11:37:49;;;;;;;4.93;1.77;;;11.50;81.90;;;;;;4115384;28;20057;-77
2024/01/26 11:39:51;;;;;;;3.58;1.52;;;11.60;82.00;;;;;;4115693;28;20506;-79
2024/01/26 11:41:52;;;;;;;3.15;1.63;;;11.60;82.10;;;;;;4116578;28;20054;-79
2024/01/26 11:44:00;;;;;;;5.90;2.92;;;11.60;82.30;;;;;;4118244;28;20051;-77
2024/01/26 11:46:03;;;;;;;4.65;1.50;;;11.60;82.30;;;;;;4117537;28;20047;-78
2024/01/26 11:48:07;;;;;;;4.70;1.70;;;11.60;82.10;;;;;;4117119;28;20094;-78
2024/01/26 11:50:11;;;;;;;5.05;1.40;;;11.60;82.20;;;;;;4116229;28;20100;-80
2024/01/26 11:52:12;;;;;;;3.50;1.50;;;11.60;82.30;;;;;;4115241;28;20042;-78
2024/01/26 11:54:14;;;;;;;5.05;1.50;;;11.60;82.30;;;;;;4115505;28;20146;-79
2024/01/26 11:56:16;;;;;;;4.55;1.60;;;11.60;82.40;;;;;;4115073;28;20050;-80
2024/01/26 11:58:18;;;;;;;2.85;1.25;;;11.60;82.40;;;;;;4115411;28;20051;-76
2024/01/26 12:00:21;;;;;;;3.75;1.60;;;11.60;82.30;;;;;;4114851;28;20076;-77
2024/01/26 12:02:23;;;;;;;4.57;1.58;;;11.70;82.50;;;;;;4114869;28;20055;-79
2024/01/26 12:04:25;;;;;;;3.83;1.45;;;11.60;82.50;;;;;;4115181;28;20105;-80
2024/01/26 12:06:27;;;;;;;4.15;1.40;;;11.60;82.50;;;;;;4114761;28;20051;-78
2024/01/26 12:08:29;;;;;;;2.97;1.40;;;11.60;82.60;;;;;;4115815;28;20085;-78
2024/01/26 12:10:31;;;;;;;3.65;1.50;;;11.70;82.70;;;;;;4115295;28;20102;-79
2024/01/26 12:12:33;;;;;;;3.88;1.60;;;11.70;82.60;;;;;;4117817;28;20477;-79
2024/01/26 12:14:35;;;;;;;3.13;1.40;;;11.70;82.50;;;;;;4106675;28;20187;-80
2024/01/26 12:16:39;;;;;;;3.63;1.20;;;11.70;82.40;;;;;;4118048;28;20055;-77
2024/01/26 12:18:44;;;;;;;3.75;1.52;;;11.80;82.30;;;;;;4119879;28;20042;-78
2024/01/26 12:20:48;;;;;;;3.10;1.23;;;11.80;82.30;;;;;;4120723;28;20074;-78
2024/01/26 12:22:50;;;;;;;5.40;2.20;;;11.80;82.30;;;;;;4118869;28;20077;-78
2024/01/26 12:24:52;;;;;;;3.30;1.50;;;11.80;82.30;;;;;;4115036;28;20102;-77
2024/01/26 12:26:55;;;;;;;4.63;1.50;;;11.90;82.30;;;;;;4114544;28;20058;-79
2024/01/26 12:28:57;;;;;;;3.20;1.38;;;11.80;82.10;;;;;;4116421;28;20050;-76
2024/01/26 12:30:59;;;;;;;3.08;1.30;;;11.80;82.00;;;;;;4115680;28;20050;-79
2024/01/26 12:33:06;;;;;;;3.38;1.30;;;11.80;81.90;;;;;;4114764;28;20046;-79
2024/01/26 12:35:09;;;;;;;8.02;4.00;;;11.90;82.00;;;;;;4115228;28;20045;-80
2024/01/26 12:37:12;;;;;;;4.05;1.30;;;11.80;82.00;;;;;;4114602;28;20480;-78
2024/01/26 12:39:14;;;;;;;4.43;1.10;;;11.90;81.80;;;;;;4114597;28;20105;-79
2024/01/26 12:41:16;;;;;;;3.47;1.30;;;11.90;81.90;;;;;;4114803;28;20503;-79
2024/01/26 12:43:18;;;;;;;3.40;1.40;;;11.90;81.80;;;;;;4114681;28;20070;-79
2024/01/26 12:45:19;;;;;;;3.33;1.30;;;11.90;81.90;;;;;;4115313;28;20062;-78
2024/01/26 12:47:23;;;;;;;2.40;1.05;;;11.90;81.70;;;;;;4114394;28;20050;-79
2024/01/26 12:49:26;;;;;;;3.15;1.45;;;11.90;81.70;;;;;;4114526;28;20452;-79
2024/01/26 12:51:28;;;;;;;2.72;1.23;;;11.90;81.70;;;;;;4114957;28;20130;-78
2024/01/26 12:53:31;;;;;;;3.22;1.42;;;11.80;81.90;;;;;;4114461;28;20389;-79
2024/01/26 12:55:32;;;;;;;2.97;1.48;;;11.80;81.90;;;;;;4114997;28;20047;-79
2024/01/26 12:57:34;;;;;;;4.78;1.20;;;11.80;82.00;;;;;;4114980;28;20060;-77
2024/01/26 12:59:37;;;;;;;2.67;1.25;;;11.80;82.30;;;;;;4115174;28;20547;-78
2024/01/26 13:01:39;;;;;;;3.00;1.20;;;11.80;82.30;;;;;;4113910;28;20409;-78
2024/01/26 13:03:41;;;;;;;3.45;1.40;;;11.80;82.40;;;;;;4107073;28;20047;-80
2024/01/26 13:05:45;;;;;;;3.13;1.10;;;11.80;82.60;;;;;;4114006;28;20050;-80
2024/01/26 13:07:47;;;;;;;2.95;1.30;;;11.80;82.50;;;;;;4113869;28;20053;-78
2024/01/26 13:09:49;;;;;;;3.75;1.23;;;11.80;82.70;;;;;;4112085;28;20460;-76
2024/01/26 13:11:51;;;;;;;4.95;1.30;;;11.80;82.70;;;;;;4111714;28;20133;-77
2024/01/26 13:13:53;;;;;;;2.88;1.20;;;11.80;82.80;;;;;;4107116;28;20109;-79
2024/01/26 13:15:54;;;;;;;3.42;1.27;;;11.80;82.90;;;;;;4113242;28;20058;-79
2024/01/26 13:17:56;;;;;;;3.20;1.40;;;11.80;83.20;;;;;;4113554;28;20651;-79
2024/01/26 13:19:58;;;;;;;2.85;1.25;;;11.80;83.30;;;;;;4108433;28;20050;-81
2024/01/26 13:22:04;;;;;;;3.78;1.10;;;11.70;83.60;;;;;;4115391;28;20051;-79
2024/01/26 13:24:07;;;;;;;2.72;1.35;;;11.70;83.80;;;;;;4115403;28;20129;-79
2024/01/26 13:26:08;;;;;;;3.15;1.10;;;11.80;83.90;;;;;;4115318;28;20079;-77
2024/01/26 13:28:10;;;;;;;3.53;1.27;;;11.80;83.60;;;;;;4115133;28;20487;-79
2024/01/26 13:30:13;;;;;;;2.38;1.17;;;11.80;83.60;;;;;;4115331;28;20051;-79
2024/01/26 13:32:15;;;;;;;2.50;1.13;;;11.80;83.70;;;;;;4115622;28;20093;-78
2024/01/26 13:34:17;;;;;;;3.40;1.35;;;11.80;83.90;;;;;;4113237;28;20055;-80
2024/01/26 13:36:19;;;;;;;5.18;2.13;;;11.70;84.00;;;;;;4115094;28;20071;-78
2024/01/26 13:38:23;;;;;;;3.80;1.50;;;11.70;84.30;;;;;;4115251;28;20113;-79
2024/01/26 13:40:25;;;;;;;2.78;1.17;;;11.80;84.20;;;;;;4114644;28;20054;-82
2024/01/26 13:42:27;;;;;;;3.13;1.30;;;11.80;84.40;;;;;;4115635;28;20059;-79
2024/01/26 13:44:28;;;;;;;3.20;1.33;;;11.80;84.30;;;;;;4115097;28;20055;-78
2024/01/26 13:46:29;;;;;;;4.63;1.38;;;11.80;84.50;;;;;;4114812;28;20114;-79
2024/01/26 13:48:31;;;;;;;2.50;0.98;;;11.80;84.70;;;;;;4115484;28;20054;-79
2024/01/26 13:50:33;;;;;;;2.90;1.00;;;11.80;84.80;;;;;;4115604;28;20098;-78
2024/01/26 13:52:35;;;;;;;2.72;1.23;;;11.70;85.10;;;;;;4114850;28;20047;-80
2024/01/26 13:54:38;;;;;;;3.03;1.20;;;11.70;85.20;;;;;;4107868;28;20125;-79
2024/01/26 13:56:40;;;;;;;2.97;1.20;;;11.70;85.60;;;;;;4115862;28;20051;-78
2024/01/26 13:58:42;;;;;;;2.13;1.02;;;11.70;85.50;;;;;;4115898;28;20050;-78
2024/01/26 14:00:44;;;;;;;3.05;1.20;;;11.70;86.50;;;;;;4114400;28;20059;-79
2024/01/26 14:02:46;;;;;;;3.00;1.42;;;11.60;87.40;;;;;;4115158;28;20085;-79
2024/01/26 14:04:48;;;;;;;2.92;1.30;;;11.50;88.30;;;;;;4114455;28;20102;-78
2024/01/26 14:06:52;;;;;;;3.72;1.30;;;11.50;88.80;;;;;;4114598;28;20064;-79
2024/01/26 14:08:54;;;;;;;3.60;1.30;;;11.40;89.80;;;;;;4115350;28;20548;-79
2024/01/26 14:10:57;;;;;;;2.72;1.40;;;11.40;89.80;;;;;;4114151;28;20055;-77
2024/01/26 14:12:59;;;;;;;3.10;1.20;;;11.40;90.20;;;;;;4114375;28;20109;-78
2024/01/26 14:15:01;;;;;;;3.03;1.23;;;11.40;90.30;;;;;;4114977;28;20051;-77
2024/01/26 14:17:03;;;;;;;3.50;1.30;;;11.30;90.60;;;;;;4114013;28;20051;-80
2024/01/26 14:19:04;;;;;;;2.72;1.30;;;11.30;90.90;;;;;;4115310;28;20047;-78
2024/01/26 14:21:06;;;;;;;4.03;1.30;;;11.20;91.30;;;;;;4114188;28;20539;-77
2024/01/26 14:23:08;;;;;;;3.45;1.30;;;11.20;91.70;;;;;;4114015;28;20113;-76
2024/01/26 14:25:10;;;;;;;2.90;1.33;;;11.20;91.60;;;;;;4114561;28;20078;-75
2024/01/26 14:27:13;;;;;;;3.03;1.13;;;11.20;91.90;;;;;;4114696;28;20047;-77
2024/01/26 14:29:17;;;;;;;3.90;1.40;;;11.20;91.90;;;;;;4115698;28;20046;-78
2024/01/26 14:31:22;;;;;;;2.67;1.40;;;11.10;92.10;;;;;;4115780;28;20416;-79
2024/01/26 14:33:24;;;;;;;3.78;1.40;;;11.10;92.30;;;;;;4109401;28;20487;-76
2024/01/26 14:35:26;;;;;;;5.10;1.75;;;11.00;92.40;;;;;;4117584;28;20120;-78
2024/01/26 14:37:27;;;;;;;3.45;1.50;;;10.90;92.80;;;;;;4117305;28;20117;-80
2024/01/26 14:39:29;;;;;;;3.58;1.60;;;11.00;93.00;;;;;;4117228;28;20474;-77
2024/01/26 14:41:30;;;;;;;4.50;1.50;;;11.00;92.80;;;;;;4116873;28;20055;-76
2024/01/26 14:43:33;;;;;;;3.20;1.45;;;10.90;93.00;;;;;;4117753;28;20047;-78
2024/01/26 14:45:34;;;;;;;3.10;1.42;;;11.00;93.10;;;;;;4116490;28;20106;-75
2024/01/26 14:47:36;;;;;;;3.53;1.33;;;11.00;93.50;;;;;;4114017;28;20066;-76
2024/01/26 14:49:40;;;;;;;3.63;1.60;;;11.00;93.10;;;;;;4115740;28;20125;-77
2024/01/26 14:51:43;;;;;;;3.35;1.63;;;10.90;93.20;;;;;;4115035;28;20129;-75
2024/01/26 14:53:46;;;;;;;3.17;1.38;;;10.90;93.30;;;;;;4115170;28;20074;-77
2024/01/26 14:55:49;;;;;;;3.42;1.35;;;10.90;93.40;;;;;;4114322;28;20050;-78
2024/01/26 14:57:52;;;;;;;3.42;1.50;;;10.90;93.50;;;;;;4115181;28;20058;-76
2024/01/26 14:59:54;;;;;;;3.58;1.40;;;10.90;93.50;;;;;;4113873;28;20109;-79
2024/01/26 15:01:57;;;;;;;2.95;1.40;;;10.90;93.60;;;;;;4114363;28;20050;-76
2024/01/26 15:03:59;;;;;;;2.47;1.38;;;10.90;93.60;;;;;;4114352;28;20523;-78
2024/01/26 15:06:01;;;;;;;2.83;1.40;;;10.80;93.70;;;;;;4114204;28;20074;-77
2024/01/26 15:08:04;;;;;;;3.15;1.55;;;10.80;93.70;;;;;;4113977;28;20138;-77
2024/01/26 15:10:07;;;;;;;3.00;1.30;;;10.80;93.80;;;;;;4113293;28;20109;-79
2024/01/26 15:12:09;;;;;;;4.07;1.30;;;10.80;94.00;;;;;;4114245;28;20489;-78
2024/01/26 15:14:11;;;;;;;3.95;1.88;;;10.80;94.10;;;;;;4113980;28;20845;-78
2024/01/26 15:16:15;;;;;;;3.60;1.70;;;10.80;94.00;;;;;;4114662;28;20051;-78
2024/01/26 15:18:17;;;;;;;3.30;1.67;;;10.80;94.00;;;;;;4112143;28;20117;-77
2024/01/26 15:20:19;;;;;;;4.05;1.50;;;10.70;94.20;;;;;;4113605;28;20062;-75
2024/01/26 15:22:20;;;;;;;3.10;1.55;;;10.70;94.40;;;;;;4114011;28;20108;-76
2024/01/26 15:24:22;;;;;;;3.63;1.45;;;10.70;94.30;;;;;;4114134;28;20078;-77
2024/01/26 15:26:25;;;;;;;5.70;1.70;;;10.70;94.40;;;;;;4114585;28;20050;-76
2024/01/26 15:28:26;;;;;;;3.55;1.88;;;10.70;94.50;;;;;;4112966;28;20779;-77
2024/01/26 15:30:28;;;;;;;3.97;1.92;;;10.70;94.40;;;;;;4113973;28;20444;-79
2024/01/26 15:32:32;;;;;;;4.00;1.80;;;10.70;94.50;;;;;;4113229;28;20054;-78
2024/01/26 15:34:36;;;;;;;3.30;1.70;;;10.70;94.50;;;;;;4111334;28;20047;-78
2024/01/26 15:36:38;;;;;;;5.28;1.85;;;10.60;94.40;;;;;;4113690;28;20046;-78
2024/01/26 15:38:41;;;;;;;4.45;1.90;;;10.60;94.40;;;;;;4106431;28;20078;-77
2024/01/26 15:40:43;;;;;;;3.45;1.60;;;10.60;94.70;;;;;;4113764;28;20042;-76
2024/01/26 15:42:44;;;;;;;4.10;1.60;;;10.70;94.50;;;;;;4112921;28;20050;-77
2024/01/26 15:44:46;;;;;;;2.67;1.33;;;10.60;94.60;;;;;;4113842;28;20057;-77
2024/01/26 15:46:48;;;;;;;4.53;2.22;;;10.60;94.50;;;;;;4112814;28;20149;-78
2024/01/26 15:48:51;;;;;;;10.60;4.93;;;10.70;94.60;;;;;;4113178;28;20063;-77
2024/01/26 15:50:54;;;;;;;4.07;1.98;;;10.70;94.40;;;;;;4113895;28;20057;-78
2024/01/26 15:52:56;;;;;;;3.65;1.75;;;10.70;94.50;;;;;;4113280;28;20066;-76
2024/01/26 15:54:58;;;;;;;3.60;1.58;;;10.70;94.50;;;;;;4113711;28;20059;-77
2024/01/26 15:57:01;;;;;;;3.20;1.40;;;10.70;94.30;;;;;;4112563;28;20046;-80
2024/01/26 15:59:03;;;;;;;3.30;1.60;;;10.70;94.40;;;;;;4113609;28;20126;-76
2024/01/26 16:01:05;;;;;;;4.18;2.10;;;10.70;94.40;;;;;;4112801;28;20054;-75
2024/01/26 16:03:07;;;;;;;3.03;1.27;;;10.70;94.30;;;;;;4112717;28;20090;-76
2024/01/26 16:05:11;;;;;;;3.53;1.30;;;10.60;94.10;;;;;;4113650;28;20124;-77
2024/01/26 16:07:12;;;;;;;3.55;1.35;;;10.60;94.30;;;;;;4113703;28;20050;-77
2024/01/26 16:09:16;;;;;;;2.80;1.33;;;10.60;94.40;;;;;;4112482;28;20069;-76
2024/01/26 16:11:19;;;;;;;3.10;1.40;;;10.70;94.20;;;;;;4112994;28;20085;-77
2024/01/26 16:13:21;;;;;;;2.65;1.20;;;10.60;94.10;;;;;;4112745;28;20552;-78
2024/01/26 16:15:23;;;;;;;3.00;1.30;;;10.60;94.10;;;;;;4112511;28;20459;-80
2024/01/26 16:17:24;;;;;;;2.47;1.05;;;10.70;94.40;;;;;;4114328;28;20452;-80
2024/01/26 16:19:26;;;;;;;2.55;1.35;;;10.60;94.00;;;;;;4114759;28;20482;-80
2024/01/26 16:21:29;;;;;;;2.60;1.10;;;10.70;94.40;;;;;;4111806;28;20077;-81
2024/01/26 16:23:30;;;;;;;3.38;1.20;;;10.60;94.00;;;;;;4114920;28;20451;-78
2024/01/26 16:25:32;;;;;;;2.75;1.17;;;10.70;94.00;;;;;;4112845;28;20054;-78
2024/01/26 16:27:34;;;;;;;2.55;1.20;;;10.60;93.80;;;;;;4114064;28;20043;-79
2024/01/26 16:29:35;;;;;;;5.07;1.65;;;10.60;94.00;;;;;;4112889;28;20476;-80
2024/01/26 16:31:39;;;;;;;2.40;1.10;;;10.50;94.10;;;;;;4113030;28;20054;-77
2024/01/26 16:33:40;;;;;;;2.28;1.00;;;10.50;94.10;;;;;;4112914;28;20047;-78
2024/01/26 16:35:42;;;;;;;2.88;1.30;;;10.50;94.10;;;;;;4106419;28;20385;-80
2024/01/26 16:37:46;;;;;;;2.60;1.15;;;10.50;94.00;;;;;;4107309;28;20056;-79